Terminal Aerodrome Forecast
Issued by NWS Lake Charles, LA

Home | Current Version | Previous Version | Text Only | Print | Product List | Glossary On
Versions: 1 2 3 4 5 6 7 8 9 10 11 12 13 14 15 16 17
000
FTUS44 KLCH 291502 AAA
TAFARA
TAF AMD
KARA 291502Z 2915/3012 17012G18KT P6SM BKN025
     FM291700 17013G19KT P6SM VCTS SCT020 BKN025CB
     FM300200 18016G22KT P6SM VCTS OVC025CB PROB30 3002/3008 2SM
      TSRA
     FM301000 20008KT P6SM VCSH OVC015=

USA.gov is the U.S. government's official web portal to all federal, state and local government web resources and services.